sensor_id;sensor_type;location;lat;lon;timestamp;P1;durP1;ratioP1;P2;durP2;ratioP2
68315;SDS011;55508;54.368;18.406;2023-09-12T00:02:15;79.47;;;56.30;;
68315;SDS011;55508;54.368;18.406;2023-09-12T00:04:42;74.25;;;54.70;;
68315;SDS011;55508;54.368;18.406;2023-09-12T00:07:09;72.40;;;56.25;;
68315;SDS011;55508;54.368;18.406;2023-09-12T00:09:36;70.47;;;53.05;;
68315;SDS011;55508;54.368;18.406;2023-09-12T00:12:03;72.50;;;53.50;;
68315;SDS011;55508;54.368;18.406;2023-09-12T00:14:30;74.07;;;54.80;;
68315;SDS011;55508;54.368;18.406;2023-09-12T00:16:57;73.65;;;55.45;;
68315;SDS011;55508;54.368;18.406;2023-09-12T00:19:23;71.70;;;54.30;;
68315;SDS011;55508;54.368;18.406;2023-09-12T00:21:50;72.00;;;55.78;;
68315;SDS011;55508;54.368;18.406;2023-09-12T00:24:19;66.07;;;53.50;;
68315;SDS011;55508;54.368;18.406;2023-09-12T00:26:46;70.82;;;53.78;;
68315;SDS011;55508;54.368;18.406;2023-09-12T00:29:13;73.65;;;53.13;;
68315;SDS011;55508;54.368;18.406;2023-09-12T00:31:39;62.10;;;49.53;;
68315;SDS011;55508;54.368;18.406;2023-09-12T00:34:06;66.30;;;51.33;;
68315;SDS011;55508;54.368;18.406;2023-09-12T00:36:33;71.65;;;54.60;;
68315;SDS011;55508;54.368;18.406;2023-09-12T00:39:00;74.40;;;55.40;;
68315;SDS011;55508;54.368;18.406;2023-09-12T00:41:27;68.22;;;52.80;;
68315;SDS011;55508;54.368;18.406;2023-09-12T00:43:54;68.72;;;52.35;;
68315;SDS011;55508;54.368;18.406;2023-09-12T00:46:21;66.68;;;50.83;;
68315;SDS011;55508;54.368;18.406;2023-09-12T00:48:48;62.40;;;48.55;;
68315;SDS011;55508;54.368;18.406;2023-09-12T00:51:16;66.43;;;52.40;;
68315;SDS011;55508;54.368;18.406;2023-09-12T00:53:44;70.30;;;52.13;;
68315;SDS011;55508;54.368;18.406;2023-09-12T00:56:12;67.43;;;53.22;;
68315;SDS011;55508;54.368;18.406;2023-09-12T00:58:38;71.55;;;54.13;;
68315;SDS011;55508;54.368;18.406;2023-09-12T01:01:06;61.90;;;48.90;;
68315;SDS011;55508;54.368;18.406;2023-09-12T01:03:34;56.05;;;44.25;;
68315;SDS011;55508;54.368;18.406;2023-09-12T01:06:01;70.45;;;52.60;;
68315;SDS011;55508;54.368;18.406;2023-09-12T01:08:29;67.78;;;52.22;;
68315;SDS011;55508;54.368;18.406;2023-09-12T01:10:56;56.25;;;45.40;;
68315;SDS011;55508;54.368;18.406;2023-09-12T01:13:23;68.22;;;50.25;;
68315;SDS011;55508;54.368;18.406;2023-09-12T01:15:50;62.78;;;47.67;;
68315;SDS011;55508;54.368;18.406;2023-09-12T01:18:17;69.60;;;52.55;;
68315;SDS011;55508;54.368;18.406;2023-09-12T01:20:53;71.88;;;51.35;;
68315;SDS011;55508;54.368;18.406;2023-09-12T01:26:56;64.93;;;49.03;;
68315;SDS011;55508;54.368;18.406;2023-09-12T01:29:46;58.65;;;45.88;;
68315;SDS011;55508;54.368;18.406;2023-09-12T01:32:14;55.15;;;44.28;;
68315;SDS011;55508;54.368;18.406;2023-09-12T01:34:41;56.67;;;45.58;;
68315;SDS011;55508;54.368;18.406;2023-09-12T01:37:08;72.10;;;55.90;;
68315;SDS011;55508;54.368;18.406;2023-09-12T01:39:35;64.43;;;51.60;;
68315;SDS011;55508;54.368;18.406;2023-09-12T01:42:03;71.07;;;53.20;;
68315;SDS011;55508;54.368;18.406;2023-09-12T01:44:30;72.00;;;55.33;;
68315;SDS011;55508;54.368;18.406;2023-09-12T01:47:00;70.00;;;56.00;;
68315;SDS011;55508;54.368;18.406;2023-09-12T01:49:30;72.25;;;55.25;;
68315;SDS011;55508;54.368;18.406;2023-09-12T01:51:58;79.70;;;57.90;;
68315;SDS011;55508;54.368;18.406;2023-09-12T01:54:26;71.70;;;54.78;;
68315;SDS011;55508;54.368;18.406;2023-09-12T01:56:54;69.75;;;52.83;;
68315;SDS011;55508;54.368;18.406;2023-09-12T01:59:24;67.53;;;51.17;;
68315;SDS011;55508;54.368;18.406;2023-09-12T02:01:51;61.10;;;47.58;;
68315;SDS011;55508;54.368;18.406;2023-09-12T02:04:18;63.95;;;50.30;;
68315;SDS011;55508;54.368;18.406;2023-09-12T02:06:45;66.07;;;50.67;;
68315;SDS011;55508;54.368;18.406;2023-09-12T02:09:15;62.22;;;48.58;;
68315;SDS011;55508;54.368;18.406;2023-09-12T02:11:42;62.85;;;49.17;;
68315;SDS011;55508;54.368;18.406;2023-09-12T02:14:09;69.28;;;51.55;;
68315;SDS011;55508;54.368;18.406;2023-09-12T02:16:37;67.13;;;51.10;;
68315;SDS011;55508;54.368;18.406;2023-09-12T02:21:35;63.25;;;47.63;;
68315;SDS011;55508;54.368;18.406;2023-09-12T02:24:02;59.85;;;47.47;;
68315;SDS011;55508;54.368;18.406;2023-09-12T02:26:29;58.35;;;46.47;;
68315;SDS011;55508;54.368;18.406;2023-09-12T02:28:58;61.85;;;48.15;;
68315;SDS011;55508;54.368;18.406;2023-09-12T02:31:25;67.22;;;51.97;;
68315;SDS011;55508;54.368;18.406;2023-09-12T02:33:52;58.35;;;46.88;;
68315;SDS011;55508;54.368;18.406;2023-09-12T02:36:20;55.10;;;43.10;;
68315;SDS011;55508;54.368;18.406;2023-09-12T02:38:47;50.85;;;43.67;;
68315;SDS011;55508;54.368;18.406;2023-09-12T02:41:14;52.55;;;43.53;;
68315;SDS011;55508;54.368;18.406;2023-09-12T02:43:41;58.38;;;45.45;;
68315;SDS011;55508;54.368;18.406;2023-09-12T02:46:08;59.08;;;46.90;;
68315;SDS011;55508;54.368;18.406;2023-09-12T02:48:35;56.20;;;43.53;;
68315;SDS011;55508;54.368;18.406;2023-09-12T02:51:02;61.38;;;48.55;;
68315;SDS011;55508;54.368;18.406;2023-09-12T02:53:29;57.80;;;48.20;;
68315;SDS011;55508;54.368;18.406;2023-09-12T02:55:57;51.70;;;43.60;;
68315;SDS011;55508;54.368;18.406;2023-09-12T02:58:23;51.17;;;41.95;;
68315;SDS011;55508;54.368;18.406;2023-09-12T03:00:50;49.50;;;39.72;;
68315;SDS011;55508;54.368;18.406;2023-09-12T03:03:21;49.97;;;40.40;;
68315;SDS011;55508;54.368;18.406;2023-09-12T03:05:56;50.65;;;40.22;;
68315;SDS011;55508;54.368;18.406;2023-09-12T03:08:27;51.40;;;41.75;;
68315;SDS011;55508;54.368;18.406;2023-09-12T03:10:57;47.72;;;41.83;;
68315;SDS011;55508;54.368;18.406;2023-09-12T03:13:25;51.60;;;41.65;;
68315;SDS011;55508;54.368;18.406;2023-09-12T03:15:52;53.95;;;42.72;;
68315;SDS011;55508;54.368;18.406;2023-09-12T03:18:19;51.83;;;40.05;;
68315;SDS011;55508;54.368;18.406;2023-09-12T03:20:47;43.70;;;37.13;;
68315;SDS011;55508;54.368;18.406;2023-09-12T03:23:13;50.00;;;41.58;;
68315;SDS011;55508;54.368;18.406;2023-09-12T03:25:40;51.30;;;44.22;;
68315;SDS011;55508;54.368;18.406;2023-09-12T03:28:08;53.25;;;41.70;;
68315;SDS011;55508;54.368;18.406;2023-09-12T03:30:35;52.83;;;43.95;;
68315;SDS011;55508;54.368;18.406;2023-09-12T03:33:05;45.83;;;38.97;;
68315;SDS011;55508;54.368;18.406;2023-09-12T03:35:34;49.08;;;40.90;;
68315;SDS011;55508;54.368;18.406;2023-09-12T03:38:01;43.72;;;36.90;;
68315;SDS011;55508;54.368;18.406;2023-09-12T03:40:29;46.75;;;40.47;;
68315;SDS011;55508;54.368;18.406;2023-09-12T03:42:57;49.03;;;41.45;;
68315;SDS011;55508;54.368;18.406;2023-09-12T03:45:25;46.17;;;40.35;;
68315;SDS011;55508;54.368;18.406;2023-09-12T03:47:52;44.53;;;39.63;;
68315;SDS011;55508;54.368;18.406;2023-09-12T03:50:19;53.15;;;40.65;;
68315;SDS011;55508;54.368;18.406;2023-09-12T03:52:46;44.38;;;38.10;;
68315;SDS011;55508;54.368;18.406;2023-09-12T03:55:13;49.72;;;41.53;;
68315;SDS011;55508;54.368;18.406;2023-09-12T03:57:40;44.78;;;39.85;;
68315;SDS011;55508;54.368;18.406;2023-09-12T04:00:07;50.30;;;42.35;;
68315;SDS011;55508;54.368;18.406;2023-09-12T04:02:46;52.22;;;41.35;;
68315;SDS011;55508;54.368;18.406;2023-09-12T04:05:14;49.35;;;39.92;;
68315;SDS011;55508;54.368;18.406;2023-09-12T04:07:41;45.10;;;37.63;;
68315;SDS011;55508;54.368;18.406;2023-09-12T04:10:08;47.15;;;40.72;;
68315;SDS011;55508;54.368;18.406;2023-09-12T04:12:35;48.42;;;40.03;;
68315;SDS011;55508;54.368;18.406;2023-09-12T04:15:03;48.22;;;39.50;;
68315;SDS011;55508;54.368;18.406;2023-09-12T04:17:30;53.22;;;41.00;;
68315;SDS011;55508;54.368;18.406;2023-09-12T04:19:57;44.00;;;37.63;;
68315;SDS011;55508;54.368;18.406;2023-09-12T04:22:24;43.17;;;37.42;;
68315;SDS011;55508;54.368;18.406;2023-09-12T04:24:51;53.63;;;39.35;;
68315;SDS011;55508;54.368;18.406;2023-09-12T04:27:18;42.15;;;37.60;;
68315;SDS011;55508;54.368;18.406;2023-09-12T04:29:45;43.58;;;37.63;;
68315;SDS011;55508;54.368;18.406;2023-09-12T04:32:13;49.90;;;39.42;;
68315;SDS011;55508;54.368;18.406;2023-09-12T04:34:42;46.03;;;37.95;;
68315;SDS011;55508;54.368;18.406;2023-09-12T04:37:10;45.78;;;36.97;;
68315;SDS011;55508;54.368;18.406;2023-09-12T04:39:36;43.28;;;36.97;;
68315;SDS011;55508;54.368;18.406;2023-09-12T04:42:04;48.60;;;33.72;;
68315;SDS011;55508;54.368;18.406;2023-09-12T04:44:40;35.47;;;29.98;;
68315;SDS011;55508;54.368;18.406;2023-09-12T04:47:09;35.58;;;29.67;;
68315;SDS011;55508;54.368;18.406;2023-09-12T04:49:36;31.25;;;27.45;;
68315;SDS011;55508;54.368;18.406;2023-09-12T04:52:03;34.10;;;27.08;;
68315;SDS011;55508;54.368;18.406;2023-09-12T04:54:30;34.00;;;26.88;;
68315;SDS011;55508;54.368;18.406;2023-09-12T04:56:58;32.05;;;24.10;;
68315;SDS011;55508;54.368;18.406;2023-09-12T04:59:26;25.65;;;22.80;;
68315;SDS011;55508;54.368;18.406;2023-09-12T05:01:53;30.45;;;21.30;;
68315;SDS011;55508;54.368;18.406;2023-09-12T05:04:20;28.38;;;20.23;;
68315;SDS011;55508;54.368;18.406;2023-09-12T05:06:47;33.55;;;20.80;;
68315;SDS011;55508;54.368;18.406;2023-09-12T05:09:14;32.60;;;20.05;;
68315;SDS011;55508;54.368;18.406;2023-09-12T05:11:41;31.92;;;19.33;;
68315;SDS011;55508;54.368;18.406;2023-09-12T05:14:09;34.17;;;20.10;;
68315;SDS011;55508;54.368;18.406;2023-09-12T05:16:36;24.73;;;18.83;;
68315;SDS011;55508;54.368;18.406;2023-09-12T05:19:03;35.08;;;19.45;;
68315;SDS011;55508;54.368;18.406;2023-09-12T05:21:30;34.60;;;19.05;;
68315;SDS011;55508;54.368;18.406;2023-09-12T05:23:58;30.27;;;19.13;;
68315;SDS011;55508;54.368;18.406;2023-09-12T05:26:25;29.33;;;19.90;;
68315;SDS011;55508;54.368;18.406;2023-09-12T05:28:52;23.88;;;18.90;;
68315;SDS011;55508;54.368;18.406;2023-09-12T05:31:19;27.90;;;20.50;;
68315;SDS011;55508;54.368;18.406;2023-09-12T05:33:47;77.90;;;23.25;;
68315;SDS011;55508;54.368;18.406;2023-09-12T05:36:16;51.38;;;20.85;;
68315;SDS011;55508;54.368;18.406;2023-09-12T05:38:43;73.28;;;23.65;;
68315;SDS011;55508;54.368;18.406;2023-09-12T05:41:11;61.60;;;25.20;;
68315;SDS011;55508;54.368;18.406;2023-09-12T05:43:38;38.67;;;24.17;;
68315;SDS011;55508;54.368;18.406;2023-09-12T05:46:05;26.75;;;22.85;;
68315;SDS011;55508;54.368;18.406;2023-09-12T05:48:33;33.28;;;24.38;;
68315;SDS011;55508;54.368;18.406;2023-09-12T05:51:00;37.58;;;30.40;;
68315;SDS011;55508;54.368;18.406;2023-09-12T05:53:27;59.05;;;39.28;;
68315;SDS011;55508;54.368;18.406;2023-09-12T05:55:54;20.15;;;16.58;;
68315;SDS011;55508;54.368;18.406;2023-09-12T05:58:22;28.13;;;16.73;;
68315;SDS011;55508;54.368;18.406;2023-09-12T06:00:49;17.80;;;16.08;;
68315;SDS011;55508;54.368;18.406;2023-09-12T06:03:17;30.40;;;19.35;;
68315;SDS011;55508;54.368;18.406;2023-09-12T06:05:44;19.10;;;17.02;;
68315;SDS011;55508;54.368;18.406;2023-09-12T06:08:11;30.63;;;19.05;;
68315;SDS011;55508;54.368;18.406;2023-09-12T06:10:38;27.95;;;21.02;;
68315;SDS011;55508;54.368;18.406;2023-09-12T06:13:05;35.97;;;21.25;;
68315;SDS011;55508;54.368;18.406;2023-09-12T06:15:32;23.95;;;20.52;;
68315;SDS011;55508;54.368;18.406;2023-09-12T06:17:59;45.10;;;22.17;;
68315;SDS011;55508;54.368;18.406;2023-09-12T06:20:26;39.42;;;24.20;;
68315;SDS011;55508;54.368;18.406;2023-09-12T06:22:53;55.50;;;24.92;;
68315;SDS011;55508;54.368;18.406;2023-09-12T06:25:20;111.20;;;43.90;;
68315;SDS011;55508;54.368;18.406;2023-09-12T06:27:47;69.00;;;28.45;;
68315;SDS011;55508;54.368;18.406;2023-09-12T06:30:14;49.35;;;25.67;;
68315;SDS011;55508;54.368;18.406;2023-09-12T06:32:41;47.45;;;24.77;;
68315;SDS011;55508;54.368;18.406;2023-09-12T06:35:08;60.78;;;26.73;;
68315;SDS011;55508;54.368;18.406;2023-09-12T06:37:38;63.53;;;28.80;;
68315;SDS011;55508;54.368;18.406;2023-09-12T06:40:06;62.95;;;24.60;;
68315;SDS011;55508;54.368;18.406;2023-09-12T06:42:34;50.60;;;23.10;;
68315;SDS011;55508;54.368;18.406;2023-09-12T06:45:01;51.88;;;24.52;;
68315;SDS011;55508;54.368;18.406;2023-09-12T06:47:28;72.53;;;22.60;;
68315;SDS011;55508;54.368;18.406;2023-09-12T06:49:55;51.35;;;19.88;;
68315;SDS011;55508;54.368;18.406;2023-09-12T06:52:22;41.13;;;20.38;;
68315;SDS011;55508;54.368;18.406;2023-09-12T06:54:49;19.05;;;13.57;;
68315;SDS011;55508;54.368;18.406;2023-09-12T06:57:16;19.13;;;13.05;;
68315;SDS011;55508;54.368;18.406;2023-09-12T06:59:43;20.42;;;13.82;;
68315;SDS011;55508;54.368;18.406;2023-09-12T07:02:10;15.77;;;12.32;;
68315;SDS011;55508;54.368;18.406;2023-09-12T07:04:39;19.20;;;11.57;;
68315;SDS011;55508;54.368;18.406;2023-09-12T07:07:06;18.92;;;11.63;;
68315;SDS011;55508;54.368;18.406;2023-09-12T07:09:33;12.07;;;11.07;;
68315;SDS011;55508;54.368;18.406;2023-09-12T07:12:00;12.32;;;10.57;;
68315;SDS011;55508;54.368;18.406;2023-09-12T07:14:27;12.10;;;9.80;;
68315;SDS011;55508;54.368;18.406;2023-09-12T07:16:56;13.77;;;9.35;;
68315;SDS011;55508;54.368;18.406;2023-09-12T07:19:23;12.00;;;8.10;;
68315;SDS011;55508;54.368;18.406;2023-09-12T07:21:50;9.52;;;8.63;;
68315;SDS011;55508;54.368;18.406;2023-09-12T07:24:17;9.43;;;8.48;;
68315;SDS011;55508;54.368;18.406;2023-09-12T07:26:44;10.43;;;8.30;;
68315;SDS011;55508;54.368;18.406;2023-09-12T07:29:13;9.43;;;8.52;;
68315;SDS011;55508;54.368;18.406;2023-09-12T07:31:40;9.02;;;8.23;;
68315;SDS011;55508;54.368;18.406;2023-09-12T07:34:07;9.10;;;8.02;;
68315;SDS011;55508;54.368;18.406;2023-09-12T07:36:35;10.27;;;8.18;;
68315;SDS011;55508;54.368;18.406;2023-09-12T07:39:03;11.18;;;9.45;;
68315;SDS011;55508;54.368;18.406;2023-09-12T07:41:30;13.18;;;8.70;;
68315;SDS011;55508;54.368;18.406;2023-09-12T07:43:57;16.45;;;9.32;;
68315;SDS011;55508;54.368;18.406;2023-09-12T07:46:24;9.65;;;7.70;;
68315;SDS011;55508;54.368;18.406;2023-09-12T07:48:53;15.07;;;9.48;;
68315;SDS011;55508;54.368;18.406;2023-09-12T07:51:20;17.10;;;8.70;;
68315;SDS011;55508;54.368;18.406;2023-09-12T07:53:49;12.85;;;8.15;;
68315;SDS011;55508;54.368;18.406;2023-09-12T07:56:16;16.23;;;7.72;;
68315;SDS011;55508;54.368;18.406;2023-09-12T07:58:43;15.20;;;8.05;;
68315;SDS011;55508;54.368;18.406;2023-09-12T08:01:10;10.10;;;7.93;;
68315;SDS011;55508;54.368;18.406;2023-09-12T08:03:37;12.07;;;6.97;;
68315;SDS011;55508;54.368;18.406;2023-09-12T08:06:07;10.30;;;7.10;;
68315;SDS011;55508;54.368;18.406;2023-09-12T08:08:34;8.32;;;7.47;;
68315;SDS011;55508;54.368;18.406;2023-09-12T08:11:01;10.82;;;7.78;;
68315;SDS011;55508;54.368;18.406;2023-09-12T08:13:29;10.80;;;8.13;;
68315;SDS011;55508;54.368;18.406;2023-09-12T08:15:56;10.50;;;7.35;;
68315;SDS011;55508;54.368;18.406;2023-09-12T08:18:29;8.15;;;7.28;;
68315;SDS011;55508;54.368;18.406;2023-09-12T08:20:57;7.80;;;7.07;;
68315;SDS011;55508;54.368;18.406;2023-09-12T08:23:24;7.38;;;6.53;;
68315;SDS011;55508;54.368;18.406;2023-09-12T08:25:52;16.65;;;7.18;;
68315;SDS011;55508;54.368;18.406;2023-09-12T08:28:19;12.40;;;6.68;;
68315;SDS011;55508;54.368;18.406;2023-09-12T08:30:46;8.15;;;7.43;;
68315;SDS011;55508;54.368;18.406;2023-09-12T08:33:13;9.70;;;6.85;;
68315;SDS011;55508;54.368;18.406;2023-09-12T08:35:40;12.02;;;7.43;;
68315;SDS011;55508;54.368;18.406;2023-09-12T08:38:07;9.25;;;7.18;;
68315;SDS011;55508;54.368;18.406;2023-09-12T08:40:35;8.25;;;7.40;;
68315;SDS011;55508;54.368;18.406;2023-09-12T08:43:02;7.05;;;6.53;;
68315;SDS011;55508;54.368;18.406;2023-09-12T08:45:33;9.38;;;6.80;;
68315;SDS011;55508;54.368;18.406;2023-09-12T08:48:00;7.32;;;6.82;;
68315;SDS011;55508;54.368;18.406;2023-09-12T08:50:28;9.52;;;7.40;;
68315;SDS011;55508;54.368;18.406;2023-09-12T08:53:01;7.97;;;6.72;;
68315;SDS011;55508;54.368;18.406;2023-09-12T08:55:33;9.07;;;6.45;;
68315;SDS011;55508;54.368;18.406;2023-09-12T08:58:03;7.88;;;7.15;;
68315;SDS011;55508;54.368;18.406;2023-09-12T09:00:31;7.55;;;6.82;;
68315;SDS011;55508;54.368;18.406;2023-09-12T09:02:59;87.75;;;10.27;;
68315;SDS011;55508;54.368;18.406;2023-09-12T09:05:27;7.45;;;6.82;;
68315;SDS011;55508;54.368;18.406;2023-09-12T09:07:55;12.52;;;7.50;;
68315;SDS011;55508;54.368;18.406;2023-09-12T09:10:23;9.13;;;7.00;;
68315;SDS011;55508;54.368;18.406;2023-09-12T09:13:12;8.05;;;7.25;;
68315;SDS011;55508;54.368;18.406;2023-09-12T09:15:39;7.70;;;6.97;;
68315;SDS011;55508;54.368;18.406;2023-09-12T09:18:09;7.72;;;6.97;;
68315;SDS011;55508;54.368;18.406;2023-09-12T09:20:38;7.50;;;6.80;;
68315;SDS011;55508;54.368;18.406;2023-09-12T09:23:09;7.55;;;6.72;;
68315;SDS011;55508;54.368;18.406;2023-09-12T09:28:23;6.57;;;6.07;;
68315;SDS011;55508;54.368;18.406;2023-09-12T09:30:51;7.07;;;6.38;;
68315;SDS011;55508;54.368;18.406;2023-09-12T09:33:21;6.97;;;6.47;;
68315;SDS011;55508;54.368;18.406;2023-09-12T09:35:49;6.95;;;6.35;;
68315;SDS011;55508;54.368;18.406;2023-09-12T09:38:18;6.32;;;5.93;;
68315;SDS011;55508;54.368;18.406;2023-09-12T09:40:47;7.45;;;6.88;;
68315;SDS011;55508;54.368;18.406;2023-09-12T09:43:19;7.05;;;6.53;;
68315;SDS011;55508;54.368;18.406;2023-09-12T09:45:46;7.55;;;6.85;;
68315;SDS011;55508;54.368;18.406;2023-09-12T09:48:17;8.32;;;6.10;;
68315;SDS011;55508;54.368;18.406;2023-09-12T09:50:49;8.93;;;6.57;;
68315;SDS011;55508;54.368;18.406;2023-09-12T09:53:16;8.73;;;6.63;;
68315;SDS011;55508;54.368;18.406;2023-09-12T09:55:43;6.43;;;5.75;;
68315;SDS011;55508;54.368;18.406;2023-09-12T09:58:14;8.23;;;6.13;;
68315;SDS011;55508;54.368;18.406;2023-09-12T10:00:45;6.88;;;6.30;;
68315;SDS011;55508;54.368;18.406;2023-09-12T10:03:15;9.65;;;6.07;;
68315;SDS011;55508;54.368;18.406;2023-09-12T10:05:44;34.40;;;7.43;;
68315;SDS011;55508;54.368;18.406;2023-09-12T10:08:12;6.20;;;5.60;;
68315;SDS011;55508;54.368;18.406;2023-09-12T10:10:44;12.13;;;6.22;;
68315;SDS011;55508;54.368;18.406;2023-09-12T10:13:11;8.20;;;5.75;;
68315;SDS011;55508;54.368;18.406;2023-09-12T10:15:38;6.30;;;5.72;;
68315;SDS011;55508;54.368;18.406;2023-09-12T10:18:08;8.13;;;5.65;;
68315;SDS011;55508;54.368;18.406;2023-09-12T10:20:48;7.18;;;5.80;;
68315;SDS011;55508;54.368;18.406;2023-09-12T10:23:19;6.07;;;5.40;;
68315;SDS011;55508;54.368;18.406;2023-09-12T10:25:54;6.63;;;6.18;;
68315;SDS011;55508;54.368;18.406;2023-09-12T10:28:21;6.90;;;6.20;;
68315;SDS011;55508;54.368;18.406;2023-09-12T10:30:49;6.50;;;5.90;;
68315;SDS011;55508;54.368;18.406;2023-09-12T10:33:16;8.80;;;6.00;;
68315;SDS011;55508;54.368;18.406;2023-09-12T10:35:44;106.80;;;10.40;;
68315;SDS011;55508;54.368;18.406;2023-09-12T10:38:12;6.63;;;5.97;;
68315;SDS011;55508;54.368;18.406;2023-09-12T10:40:40;7.82;;;5.97;;
68315;SDS011;55508;54.368;18.406;2023-09-12T10:43:10;12.85;;;6.38;;
68315;SDS011;55508;54.368;18.406;2023-09-12T10:45:38;9.05;;;6.55;;
68315;SDS011;55508;54.368;18.406;2023-09-12T10:48:06;7.85;;;5.95;;
68315;SDS011;55508;54.368;18.406;2023-09-12T10:50:33;6.60;;;6.10;;
68315;SDS011;55508;54.368;18.406;2023-09-12T10:53:08;9.68;;;6.00;;
68315;SDS011;55508;54.368;18.406;2023-09-12T10:55:38;9.23;;;5.95;;
68315;SDS011;55508;54.368;18.406;2023-09-12T10:58:05;6.40;;;5.82;;
68315;SDS011;55508;54.368;18.406;2023-09-12T11:00:34;6.47;;;5.97;;
68315;SDS011;55508;54.368;18.406;2023-09-12T11:06:19;25.25;;;6.88;;
68315;SDS011;55508;54.368;18.406;2023-09-12T11:11:43;6.90;;;6.20;;
68315;SDS011;55508;54.368;18.406;2023-09-12T11:14:15;9.85;;;6.13;;
68315;SDS011;55508;54.368;18.406;2023-09-12T11:16:43;13.35;;;6.90;;
68315;SDS011;55508;54.368;18.406;2023-09-12T11:19:50;10.63;;;7.00;;
68315;SDS011;55508;54.368;18.406;2023-09-12T11:22:22;7.57;;;6.70;;
68315;SDS011;55508;54.368;18.406;2023-09-12T11:24:50;7.40;;;6.78;;
68315;SDS011;55508;54.368;18.406;2023-09-12T11:27:18;9.25;;;6.55;;
68315;SDS011;55508;54.368;18.406;2023-09-12T11:29:45;13.73;;;6.75;;
68315;SDS011;55508;54.368;18.406;2023-09-12T11:32:24;7.28;;;6.60;;
68315;SDS011;55508;54.368;18.406;2023-09-12T11:34:53;8.32;;;7.00;;
68315;SDS011;55508;54.368;18.406;2023-09-12T11:37:24;7.53;;;6.97;;
68315;SDS011;55508;54.368;18.406;2023-09-12T11:39:53;11.60;;;6.97;;
68315;SDS011;55508;54.368;18.406;2023-09-12T11:42:21;8.15;;;7.20;;
68315;SDS011;55508;54.368;18.406;2023-09-12T11:44:49;9.85;;;7.05;;
68315;SDS011;55508;54.368;18.406;2023-09-12T11:47:16;7.30;;;6.70;;
68315;SDS011;55508;54.368;18.406;2023-09-12T11:49:43;7.35;;;6.68;;
68315;SDS011;55508;54.368;18.406;2023-09-12T11:52:14;7.18;;;6.40;;
68315;SDS011;55508;54.368;18.406;2023-09-12T11:54:47;9.60;;;6.80;;
68315;SDS011;55508;54.368;18.406;2023-09-12T11:57:15;7.28;;;6.50;;
68315;SDS011;55508;54.368;18.406;2023-09-12T11:59:44;7.20;;;6.40;;
68315;SDS011;55508;54.368;18.406;2023-09-12T12:02:18;9.68;;;6.32;;
68315;SDS011;55508;54.368;18.406;2023-09-12T12:04:45;9.70;;;6.18;;
68315;SDS011;55508;54.368;18.406;2023-09-12T12:07:12;7.88;;;6.53;;
68315;SDS011;55508;54.368;18.406;2023-09-12T12:09:40;9.23;;;7.10;;
68315;SDS011;55508;54.368;18.406;2023-09-12T12:12:10;12.77;;;6.88;;
68315;SDS011;55508;54.368;18.406;2023-09-12T12:14:39;7.57;;;6.75;;
68315;SDS011;55508;54.368;18.406;2023-09-12T12:17:08;7.90;;;6.85;;
68315;SDS011;55508;54.368;18.406;2023-09-12T12:19:36;7.20;;;6.50;;
68315;SDS011;55508;54.368;18.406;2023-09-12T12:22:04;10.27;;;5.95;;
68315;SDS011;55508;54.368;18.406;2023-09-12T12:24:37;10.70;;;6.18;;
68315;SDS011;55508;54.368;18.406;2023-09-12T12:27:05;12.82;;;6.43;;
68315;SDS011;55508;54.368;18.406;2023-09-12T12:29:35;6.97;;;6.10;;
68315;SDS011;55508;54.368;18.406;2023-09-12T12:32:04;14.05;;;6.20;;
68315;SDS011;55508;54.368;18.406;2023-09-12T12:34:32;7.68;;;6.32;;
68315;SDS011;55508;54.368;18.406;2023-09-12T12:37:19;12.30;;;6.63;;
68315;SDS011;55508;54.368;18.406;2023-09-12T12:39:46;7.43;;;6.68;;
68315;SDS011;55508;54.368;18.406;2023-09-12T12:42:13;9.50;;;5.80;;
68315;SDS011;55508;54.368;18.406;2023-09-12T12:44:40;11.13;;;6.50;;
68315;SDS011;55508;54.368;18.406;2023-09-12T12:47:08;7.90;;;6.22;;
68315;SDS011;55508;54.368;18.406;2023-09-12T12:49:37;6.93;;;5.90;;
68315;SDS011;55508;54.368;18.406;2023-09-12T12:52:08;8.38;;;5.95;;
68315;SDS011;55508;54.368;18.406;2023-09-12T12:54:36;7.85;;;6.25;;
68315;SDS011;55508;54.368;18.406;2023-09-12T12:57:03;9.05;;;6.10;;
68315;SDS011;55508;54.368;18.406;2023-09-12T12:59:31;12.68;;;6.50;;
68315;SDS011;55508;54.368;18.406;2023-09-12T13:02:02;9.48;;;6.00;;
68315;SDS011;55508;54.368;18.406;2023-09-12T13:04:38;17.77;;;6.18;;
68315;SDS011;55508;54.368;18.406;2023-09-12T13:07:06;9.07;;;6.05;;
68315;SDS011;55508;54.368;18.406;2023-09-12T13:09:33;11.27;;;5.97;;
68315;SDS011;55508;54.368;18.406;2023-09-12T13:12:00;10.60;;;5.95;;
68315;SDS011;55508;54.368;18.406;2023-09-12T13:14:27;8.10;;;5.60;;
68315;SDS011;55508;54.368;18.406;2023-09-12T13:16:58;6.90;;;6.27;;
68315;SDS011;55508;54.368;18.406;2023-09-12T13:19:26;10.55;;;6.03;;
68315;SDS011;55508;54.368;18.406;2023-09-12T13:21:53;17.98;;;7.80;;
68315;SDS011;55508;54.368;18.406;2023-09-12T13:24:20;9.07;;;5.65;;
68315;SDS011;55508;54.368;18.406;2023-09-12T13:26:47;7.85;;;6.65;;
68315;SDS011;55508;54.368;18.406;2023-09-12T13:29:14;10.35;;;5.80;;
68315;SDS011;55508;54.368;18.406;2023-09-12T13:31:41;8.07;;;5.68;;
68315;SDS011;55508;54.368;18.406;2023-09-12T13:34:08;19.13;;;6.50;;
68315;SDS011;55508;54.368;18.406;2023-09-12T13:36:36;15.65;;;5.93;;
68315;SDS011;55508;54.368;18.406;2023-09-12T13:39:03;9.13;;;6.00;;
68315;SDS011;55508;54.368;18.406;2023-09-12T13:41:30;8.48;;;5.65;;
68315;SDS011;55508;54.368;18.406;2023-09-12T13:43:57;9.32;;;6.03;;
68315;SDS011;55508;54.368;18.406;2023-09-12T13:46:24;10.68;;;6.00;;
68315;SDS011;55508;54.368;18.406;2023-09-12T13:48:51;6.80;;;5.10;;
68315;SDS011;55508;54.368;18.406;2023-09-12T13:51:18;12.68;;;7.88;;
68315;SDS011;55508;54.368;18.406;2023-09-12T13:53:45;7.90;;;6.55;;
68315;SDS011;55508;54.368;18.406;2023-09-12T13:56:14;15.32;;;6.40;;
68315;SDS011;55508;54.368;18.406;2023-09-12T13:58:46;19.15;;;6.15;;
68315;SDS011;55508;54.368;18.406;2023-09-12T14:01:13;10.85;;;5.60;;
68315;SDS011;55508;54.368;18.406;2023-09-12T14:03:56;9.07;;;5.80;;
68315;SDS011;55508;54.368;18.406;2023-09-12T14:06:24;9.75;;;6.07;;
68315;SDS011;55508;54.368;18.406;2023-09-12T14:08:52;9.07;;;5.60;;
68315;SDS011;55508;54.368;18.406;2023-09-12T14:11:20;8.93;;;5.88;;
68315;SDS011;55508;54.368;18.406;2023-09-12T14:14:01;36.20;;;6.40;;
68315;SDS011;55508;54.368;18.406;2023-09-12T14:16:32;8.85;;;5.55;;
68315;SDS011;55508;54.368;18.406;2023-09-12T14:19:00;8.02;;;4.70;;
68315;SDS011;55508;54.368;18.406;2023-09-12T14:21:27;9.82;;;6.20;;
68315;SDS011;55508;54.368;18.406;2023-09-12T14:23:54;81.45;;;9.05;;
68315;SDS011;55508;54.368;18.406;2023-09-12T14:26:21;20.20;;;6.28;;
68315;SDS011;55508;54.368;18.406;2023-09-12T14:28:48;9.50;;;5.95;;
68315;SDS011;55508;54.368;18.406;2023-09-12T14:31:17;9.45;;;5.80;;
68315;SDS011;55508;54.368;18.406;2023-09-12T14:33:44;12.05;;;5.55;;
68315;SDS011;55508;54.368;18.406;2023-09-12T14:36:12;7.47;;;5.07;;
68315;SDS011;55508;54.368;18.406;2023-09-12T14:38:39;18.05;;;5.28;;
68315;SDS011;55508;54.368;18.406;2023-09-12T14:41:06;13.18;;;6.22;;